sensor_id;sensor_type;location;lat;lon;timestamp;pressure;altitude;pressure_sealevel;temperature;humidity
26083;BME280;13848;49.018;12.078;2022-10-31T00:01:13;98154.63;;;11.56;80.07
26083;BME280;13848;49.018;12.078;2022-10-31T00:03:39;98153.56;;;11.57;80.21
26083;BME280;13848;49.018;12.078;2022-10-31T00:06:05;98150.63;;;11.58;79.84
26083;BME280;13848;49.018;12.078;2022-10-31T00:08:31;98146.06;;;11.59;80.11
26083;BME280;13848;49.018;12.078;2022-10-31T00:10:57;98141.88;;;11.63;80.42
26083;BME280;13848;49.018;12.078;2022-10-31T00:13:25;98145.66;;;11.62;80.24
26083;BME280;13848;49.018;12.078;2022-10-31T00:15:51;98138.63;;;11.54;80.37
26083;BME280;13848;49.018;12.078;2022-10-31T00:18:17;98143.03;;;11.49;79.91
26083;BME280;13848;49.018;12.078;2022-10-31T00:20:43;98146.97;;;11.46;80.03
26083;BME280;13848;49.018;12.078;2022-10-31T00:23:09;98144.91;;;11.41;80.02
26083;BME280;13848;49.018;12.078;2022-10-31T00:25:37;98150.75;;;11.38;79.90
26083;BME280;13848;49.018;12.078;2022-10-31T00:28:05;98147.44;;;11.36;80.18
26083;BME280;13848;49.018;12.078;2022-10-31T00:30:32;98148.28;;;11.30;80.58
26083;BME280;13848;49.018;12.078;2022-10-31T00:32:58;98142.88;;;11.30;80.32
26083;BME280;13848;49.018;12.078;2022-10-31T00:35:24;98145.59;;;11.30;80.00
26083;BME280;13848;49.018;12.078;2022-10-31T00:37:52;98136.69;;;11.23;80.43
26083;BME280;13848;49.018;12.078;2022-10-31T00:40:18;98141.72;;;11.19;80.55
26083;BME280;13848;49.018;12.078;2022-10-31T00:42:44;98138.19;;;11.19;80.18
26083;BME280;13848;49.018;12.078;2022-10-31T00:45:10;98141.31;;;11.16;80.33
26083;BME280;13848;49.018;12.078;2022-10-31T00:47:38;98135.50;;;11.12;80.57
26083;BME280;13848;49.018;12.078;2022-10-31T00:50:04;98143.41;;;11.07;80.56
26083;BME280;13848;49.018;12.078;2022-10-31T00:52:30;98137.63;;;11.04;80.55
26083;BME280;13848;49.018;12.078;2022-10-31T00:54:56;98140.94;;;11.06;80.63
26083;BME280;13848;49.018;12.078;2022-10-31T00:57:22;98141.16;;;11.04;80.65
26083;BME280;13848;49.018;12.078;2022-10-31T00:59:48;98138.03;;;11.01;80.38
26083;BME280;13848;49.018;12.078;2022-10-31T01:02:14;98138.88;;;10.95;80.72
26083;BME280;13848;49.018;12.078;2022-10-31T01:04:41;98147.19;;;11.00;80.83
26083;BME280;13848;49.018;12.078;2022-10-31T01:07:07;98145.94;;;10.96;80.56
26083;BME280;13848;49.018;12.078;2022-10-31T01:09:33;98150.13;;;10.91;80.58
26083;BME280;13848;49.018;12.078;2022-10-31T01:11:59;98149.69;;;10.88;81.16
26083;BME280;13848;49.018;12.078;2022-10-31T01:14:25;98149.47;;;10.89;81.09
26083;BME280;13848;49.018;12.078;2022-10-31T01:16:51;98145.97;;;10.89;80.85
26083;BME280;13848;49.018;12.078;2022-10-31T01:19:17;98140.38;;;10.84;80.65
26083;BME280;13848;49.018;12.078;2022-10-31T01:21:44;98139.75;;;10.82;80.90
26083;BME280;13848;49.018;12.078;2022-10-31T01:24:10;98135.63;;;10.79;81.03
26083;BME280;13848;49.018;12.078;2022-10-31T01:26:36;98139.34;;;10.78;81.07
26083;BME280;13848;49.018;12.078;2022-10-31T01:29:05;98142.25;;;10.77;81.02
26083;BME280;13848;49.018;12.078;2022-10-31T01:31:33;98141.22;;;10.78;80.69
26083;BME280;13848;49.018;12.078;2022-10-31T01:33:59;98137.31;;;10.74;80.54
26083;BME280;13848;49.018;12.078;2022-10-31T01:36:26;98145.59;;;10.72;80.96
26083;BME280;13848;49.018;12.078;2022-10-31T01:38:57;98140.03;;;10.67;80.82
26083;BME280;13848;49.018;12.078;2022-10-31T01:41:26;98141.03;;;10.66;81.05
26083;BME280;13848;49.018;12.078;2022-10-31T01:43:54;98144.78;;;10.65;80.98
26083;BME280;13848;49.018;12.078;2022-10-31T01:46:24;98148.53;;;10.64;81.51
26083;BME280;13848;49.018;12.078;2022-10-31T01:48:52;98141.03;;;10.66;81.00
26083;BME280;13848;49.018;12.078;2022-10-31T01:51:22;98140.03;;;10.67;80.84
26083;BME280;13848;49.018;12.078;2022-10-31T01:53:50;98137.50;;;10.72;81.21
26083;BME280;13848;49.018;12.078;2022-10-31T01:56:20;98137.09;;;10.75;81.10
26083;BME280;13848;49.018;12.078;2022-10-31T01:58:46;98137.09;;;10.75;80.78
26083;BME280;13848;49.018;12.078;2022-10-31T02:01:14;98136.47;;;10.73;80.99
26083;BME280;13848;49.018;12.078;2022-10-31T02:03:42;98141.03;;;10.66;81.46
26083;BME280;13848;49.018;12.078;2022-10-31T02:06:15;98146.44;;;10.66;80.86
26083;BME280;13848;49.018;12.078;2022-10-31T02:08:42;98147.69;;;10.70;80.81
26083;BME280;13848;49.018;12.078;2022-10-31T02:11:09;98139.38;;;10.65;81.35
26083;BME280;13848;49.018;12.078;2022-10-31T02:13:37;98145.41;;;10.67;81.37
26083;BME280;13848;49.018;12.078;2022-10-31T02:16:04;98146.03;;;10.69;80.85
26083;BME280;13848;49.018;12.078;2022-10-31T02:18:30;98150.38;;;10.70;81.24
26083;BME280;13848;49.018;12.078;2022-10-31T02:21:02;98147.69;;;10.70;81.06
26083;BME280;13848;49.018;12.078;2022-10-31T02:24:13;98146.03;;;10.69;81.18
26083;BME280;13848;49.018;12.078;2022-10-31T02:27:13;98145.59;;;10.65;81.28
26083;BME280;13848;49.018;12.078;2022-10-31T02:30:08;98150.38;;;10.70;81.90
26083;BME280;13848;49.018;12.078;2022-10-31T02:32:47;98147.28;;;10.73;81.50
26083;BME280;13848;49.018;12.078;2022-10-31T02:35:24;98147.28;;;10.73;81.31
26083;BME280;13848;49.018;12.078;2022-10-31T02:37:57;98147.06;;;10.75;82.04
26083;BME280;13848;49.018;12.078;2022-10-31T02:40:26;98138.13;;;10.74;82.36
26083;BME280;13848;49.018;12.078;2022-10-31T02:42:58;98145.19;;;10.75;81.85
26083;BME280;13848;49.018;12.078;2022-10-31T02:45:30;98151.81;;;10.79;82.54
26083;BME280;13848;49.018;12.078;2022-10-31T02:48:02;98152.22;;;10.76;82.94
26083;BME280;13848;49.018;12.078;2022-10-31T02:50:32;98152.66;;;10.80;83.10
26083;BME280;13848;49.018;12.078;2022-10-31T02:52:59;98155.13;;;10.81;83.26
26083;BME280;13848;49.018;12.078;2022-10-31T02:55:47;98156.78;;;10.82;83.80
26083;BME280;13848;49.018;12.078;2022-10-31T02:58:18;98154.50;;;10.79;83.77
26083;BME280;13848;49.018;12.078;2022-10-31T03:01:10;98162.59;;;10.79;83.96
26083;BME280;13848;49.018;12.078;2022-10-31T03:03:51;98160.09;;;10.84;84.09
26083;BME280;13848;49.018;12.078;2022-10-31T03:06:27;98149.31;;;10.84;84.88
26083;BME280;13848;49.018;12.078;2022-10-31T03:09:00;98149.31;;;10.84;84.48
26083;BME280;13848;49.018;12.078;2022-10-31T03:11:32;98153.47;;;10.80;84.92
26083;BME280;13848;49.018;12.078;2022-10-31T03:14:08;98151.16;;;10.84;84.04
26083;BME280;13848;49.018;12.078;2022-10-31T03:16:41;98153.25;;;10.82;84.86
26083;BME280;13848;49.018;12.078;2022-10-31T03:19:17;98157.63;;;10.76;85.05
26083;BME280;13848;49.018;12.078;2022-10-31T03:21:47;98157.41;;;10.78;85.39
26083;BME280;13848;49.018;12.078;2022-10-31T03:24:15;98160.09;;;10.84;84.95
26083;BME280;13848;49.018;12.078;2022-10-31T03:26:44;98165.50;;;10.84;85.06
26083;BME280;13848;49.018;12.078;2022-10-31T03:29:14;98167.16;;;10.85;84.55
26083;BME280;13848;49.018;12.078;2022-10-31T03:31:45;98162.81;;;10.84;84.83
26083;BME280;13848;49.018;12.078;2022-10-31T03:34:15;98158.88;;;10.80;85.22
26083;BME280;13848;49.018;12.078;2022-10-31T03:36:44;98163.81;;;10.83;85.36
26083;BME280;13848;49.018;12.078;2022-10-31T03:39:13;98167.56;;;10.82;84.86
26083;BME280;13848;49.018;12.078;2022-10-31T03:41:44;98175.03;;;10.80;85.24
26083;BME280;13848;49.018;12.078;2022-10-31T03:44:13;98170.69;;;10.79;85.17
26083;BME280;13848;49.018;12.078;2022-10-31T03:46:41;98180.44;;;10.80;85.53
26083;BME280;13848;49.018;12.078;2022-10-31T03:49:08;98187.50;;;10.81;84.85
26083;BME280;13848;49.018;12.078;2022-10-31T03:51:40;98186.66;;;10.81;85.06
26083;BME280;13848;49.018;12.078;2022-10-31T03:54:12;98183.34;;;10.79;85.32
26083;BME280;13848;49.018;12.078;2022-10-31T03:56:45;98186.69;;;10.74;85.09
26083;BME280;13848;49.018;12.078;2022-10-31T03:59:17;98190.44;;;10.73;85.03
26083;BME280;13848;49.018;12.078;2022-10-31T04:01:49;98184.59;;;10.76;84.93
26083;BME280;13848;49.018;12.078;2022-10-31T04:04:19;98196.22;;;10.77;85.32
26083;BME280;13848;49.018;12.078;2022-10-31T04:06:49;98193.94;;;10.80;84.87
26083;BME280;13848;49.018;12.078;2022-10-31T04:09:16;98192.47;;;10.71;84.79
26083;BME280;13848;49.018;12.078;2022-10-31T04:11:47;98192.69;;;10.70;84.80
26083;BME280;13848;49.018;12.078;2022-10-31T04:14:14;98198.31;;;10.68;84.93
26083;BME280;13848;49.018;12.078;2022-10-31T04:16:43;98190.84;;;10.63;85.52
26083;BME280;13848;49.018;12.078;2022-10-31T04:19:09;98187.53;;;10.68;85.85
26083;BME280;13848;49.018;12.078;2022-10-31T04:21:35;98182.13;;;10.75;85.07
26083;BME280;13848;49.018;12.078;2022-10-31T04:24:03;98180.03;;;10.77;85.09
26083;BME280;13848;49.018;12.078;2022-10-31T04:26:29;98177.53;;;10.75;85.44
26083;BME280;13848;49.018;12.078;2022-10-31T04:28:55;98179.22;;;10.70;85.90
26083;BME280;13848;49.018;12.078;2022-10-31T04:31:21;98174.66;;;10.70;86.07
26083;BME280;13848;49.018;12.078;2022-10-31T04:33:47;98180.47;;;10.74;85.97
26083;BME280;13848;49.018;12.078;2022-10-31T04:36:13;98176.75;;;10.68;86.46
26083;BME280;13848;49.018;12.078;2022-10-31T04:38:40;98179.63;;;10.66;85.89
26083;BME280;13848;49.018;12.078;2022-10-31T04:41:10;98179.25;;;10.56;85.97
26083;BME280;13848;49.018;12.078;2022-10-31T04:43:36;98179.25;;;10.50;86.27
26083;BME280;13848;49.018;12.078;2022-10-31T04:46:02;98177.56;;;10.49;86.00
26083;BME280;13848;49.018;12.078;2022-10-31T04:48:28;98180.47;;;10.47;85.13
26083;BME280;13848;49.018;12.078;2022-10-31T04:50:58;98180.91;;;10.51;85.41
26083;BME280;13848;49.018;12.078;2022-10-31T04:53:24;98188.34;;;10.49;85.81
26083;BME280;13848;49.018;12.078;2022-10-31T04:55:50;98183.81;;;10.43;85.22
26083;BME280;13848;49.018;12.078;2022-10-31T04:58:17;98178.41;;;10.43;85.06
26083;BME280;13848;49.018;12.078;2022-10-31T05:00:43;98179.25;;;10.36;84.52
26083;BME280;13848;49.018;12.078;2022-10-31T05:03:09;98174.69;;;10.30;84.79
26083;BME280;13848;49.018;12.078;2022-10-31T05:05:35;98178.84;;;10.26;85.17
26083;BME280;13848;49.018;12.078;2022-10-31T05:08:02;98179.25;;;10.23;84.93
26083;BME280;13848;49.018;12.078;2022-10-31T05:10:29;98183.59;;;10.24;84.37
26083;BME280;13848;49.018;12.078;2022-10-31T05:12:56;98176.09;;;10.20;85.14
26083;BME280;13848;49.018;12.078;2022-10-31T05:15:25;98184.00;;;10.21;84.54
26083;BME280;13848;49.018;12.078;2022-10-31T05:17:52;98186.31;;;10.24;85.00
26083;BME280;13848;49.018;12.078;2022-10-31T05:20:20;98177.97;;;10.19;85.21
26083;BME280;13848;49.018;12.078;2022-10-31T05:22:48;98174.69;;;10.24;84.99
26083;BME280;13848;49.018;12.078;2022-10-31T05:25:15;98174.22;;;10.20;84.68
26083;BME280;13848;49.018;12.078;2022-10-31T05:27:43;98176.75;;;10.22;85.23
26083;BME280;13848;49.018;12.078;2022-10-31T05:30:11;98173.41;;;10.13;85.13
26083;BME280;13848;49.018;12.078;2022-10-31T05:32:40;98169.88;;;10.12;85.47
26083;BME280;13848;49.018;12.078;2022-10-31T05:35:06;98171.75;;;10.12;85.02
26083;BME280;13848;49.018;12.078;2022-10-31T05:37:32;98174.66;;;10.10;85.09
26083;BME280;13848;49.018;12.078;2022-10-31T05:39:58;98177.16;;;10.05;85.67
26083;BME280;13848;49.018;12.078;2022-10-31T05:42:24;98182.09;;;10.08;84.92
26083;BME280;13848;49.018;12.078;2022-10-31T05:44:50;98170.09;;;10.11;85.04
26083;BME280;13848;49.018;12.078;2022-10-31T05:47:16;98179.63;;;10.13;85.05
26083;BME280;13848;49.018;12.078;2022-10-31T05:49:43;98182.31;;;10.07;84.85
26083;BME280;13848;49.018;12.078;2022-10-31T05:52:09;98180.44;;;10.01;84.89
26083;BME280;13848;49.018;12.078;2022-10-31T05:54:35;98182.94;;;10.02;84.89
26083;BME280;13848;49.018;12.078;2022-10-31T05:57:01;98177.97;;;9.93;84.92
26083;BME280;13848;49.018;12.078;2022-10-31T05:59:27;98179.63;;;9.94;84.81
26083;BME280;13848;49.018;12.078;2022-10-31T06:01:53;98183.34;;;9.99;84.67
26083;BME280;13848;49.018;12.078;2022-10-31T06:04:19;98188.31;;;9.96;84.10
26083;BME280;13848;49.018;12.078;2022-10-31T06:06:46;98190.78;;;9.91;84.24
26083;BME280;13848;49.018;12.078;2022-10-31T06:09:12;98188.09;;;9.91;84.00
26083;BME280;13848;49.018;12.078;2022-10-31T06:11:38;98190.19;;;9.89;84.44
26083;BME280;13848;49.018;12.078;2022-10-31T06:14:04;98192.44;;;9.85;84.32
26083;BME280;13848;49.018;12.078;2022-10-31T06:16:30;98202.38;;;9.84;84.80
26083;BME280;13848;49.018;12.078;2022-10-31T06:18:56;98193.25;;;9.85;84.75
26083;BME280;13848;49.018;12.078;2022-10-31T06:21:22;98193.47;;;9.84;85.17
26083;BME280;13848;49.018;12.078;2022-10-31T06:23:49;98202.00;;;9.88;84.76
26083;BME280;13848;49.018;12.078;2022-10-31T06:26:16;98200.75;;;9.90;85.00
26083;BME280;13848;49.018;12.078;2022-10-31T06:28:42;98196.22;;;9.97;84.93
26083;BME280;13848;49.018;12.078;2022-10-31T06:31:07;98202.00;;;10.01;84.72
26083;BME280;13848;49.018;12.078;2022-10-31T06:33:34;98199.91;;;10.03;85.04
26083;BME280;13848;49.018;12.078;2022-10-31T06:36:00;98196.63;;;10.01;84.89
26083;BME280;13848;49.018;12.078;2022-10-31T06:38:26;98202.63;;;10.03;85.02
26083;BME280;13848;49.018;12.078;2022-10-31T06:40:53;98199.53;;;10.06;84.99
26083;BME280;13848;49.018;12.078;2022-10-31T06:43:19;98209.69;;;9.97;84.92
26083;BME280;13848;49.018;12.078;2022-10-31T06:45:46;98210.31;;;10.06;84.84
26083;BME280;13848;49.018;12.078;2022-10-31T06:48:12;98209.69;;;10.04;84.38
26083;BME280;13848;49.018;12.078;2022-10-31T06:50:38;98204.84;;;9.79;84.88
26083;BME280;13848;49.018;12.078;2022-10-31T06:53:04;98221.88;;;9.86;85.25
26083;BME280;13848;49.018;12.078;2022-10-31T06:55:30;98217.72;;;9.91;85.34
26083;BME280;13848;49.018;12.078;2022-10-31T06:57:59;98212.78;;;9.94;84.96
26083;BME280;13848;49.018;12.078;2022-10-31T07:00:27;98219.41;;;9.92;85.16
26083;BME280;13848;49.018;12.078;2022-10-31T07:02:54;98218.59;;;9.98;85.43
26083;BME280;13848;49.018;12.078;2022-10-31T07:05:20;98219.41;;;10.05;85.33
26083;BME280;13848;49.018;12.078;2022-10-31T07:07:47;98222.13;;;10.05;85.38
26083;BME280;13848;49.018;12.078;2022-10-31T07:10:13;98220.69;;;10.09;85.59
26083;BME280;13848;49.018;12.078;2022-10-31T07:12:39;98222.75;;;10.13;85.16
26083;BME280;13848;49.018;12.078;2022-10-31T07:15:07;98224.00;;;10.18;85.69
26083;BME280;13848;49.018;12.078;2022-10-31T07:17:33;98228.13;;;10.20;85.58
26083;BME280;13848;49.018;12.078;2022-10-31T07:19:59;98228.13;;;10.20;85.95
26083;BME280;13848;49.018;12.078;2022-10-31T07:22:25;98231.06;;;10.25;85.52
26083;BME280;13848;49.018;12.078;2022-10-31T07:24:50;98230.06;;;10.26;85.75
26083;BME280;13848;49.018;12.078;2022-10-31T07:27:16;98224.84;;;10.31;85.91
26083;BME280;13848;49.018;12.078;2022-10-31T07:29:42;98222.38;;;10.36;85.91
26083;BME280;13848;49.018;12.078;2022-10-31T07:32:10;98222.38;;;10.36;85.64
26083;BME280;13848;49.018;12.078;2022-10-31T07:34:36;98226.94;;;10.36;86.02
26083;BME280;13848;49.018;12.078;2022-10-31T07:37:02;98219.50;;;10.45;86.14
26083;BME280;13848;49.018;12.078;2022-10-31T07:39:28;98216.56;;;10.46;86.21
26083;BME280;13848;49.018;12.078;2022-10-31T07:41:53;98214.50;;;10.42;85.61
26083;BME280;13848;49.018;12.078;2022-10-31T07:44:19;98224.44;;;10.41;86.20
26083;BME280;13848;49.018;12.078;2022-10-31T07:46:45;98222.38;;;10.50;86.54
26083;BME280;13848;49.018;12.078;2022-10-31T07:49:13;98215.13;;;10.57;86.37
26083;BME280;13848;49.018;12.078;2022-10-31T07:51:39;98217.81;;;10.57;85.75
26083;BME280;13848;49.018;12.078;2022-10-31T07:54:04;98223.81;;;10.59;85.91
26083;BME280;13848;49.018;12.078;2022-10-31T07:56:30;98223.00;;;10.52;86.08
26083;BME280;13848;49.018;12.078;2022-10-31T07:58:56;98218.44;;;10.52;85.98
26083;BME280;13848;49.018;12.078;2022-10-31T08:01:22;98222.38;;;10.56;86.22
26083;BME280;13848;49.018;12.078;2022-10-31T08:03:48;98214.69;;;10.60;86.22
26083;BME280;13848;49.018;12.078;2022-10-31T08:06:16;98206.13;;;10.89;86.92
26083;BME280;13848;49.018;12.078;2022-10-31T08:08:42;98211.16;;;10.79;85.06
26083;BME280;13848;49.018;12.078;2022-10-31T08:11:07;98213.03;;;10.65;85.44
26083;BME280;13848;49.018;12.078;2022-10-31T08:13:33;98203.91;;;10.60;86.14
26083;BME280;13848;49.018;12.078;2022-10-31T08:15:59;98209.09;;;10.61;85.73
26083;BME280;13848;49.018;12.078;2022-10-31T08:18:25;98207.00;;;10.70;86.47
26083;BME280;13848;49.018;12.078;2022-10-31T08:20:53;98203.25;;;10.78;86.69
26083;BME280;13848;49.018;12.078;2022-10-31T08:23:20;98198.47;;;10.93;86.04
26083;BME280;13848;49.018;12.078;2022-10-31T08:25:49;98194.13;;;10.85;85.03
26083;BME280;13848;49.018;12.078;2022-10-31T08:28:15;98191.69;;;10.57;86.34
26083;BME280;13848;49.018;12.078;2022-10-31T08:30:41;98191.47;;;10.59;86.89
26083;BME280;13848;49.018;12.078;2022-10-31T08:33:10;98188.38;;;10.62;87.12
26083;BME280;13848;49.018;12.078;2022-10-31T08:35:36;98185.44;;;10.70;86.96
26083;BME280;13848;49.018;12.078;2022-10-31T08:38:02;98188.75;;;10.72;86.86
26083;BME280;13848;49.018;12.078;2022-10-31T08:40:31;98177.94;;;10.72;86.63
26083;BME280;13848;49.018;12.078;2022-10-31T08:42:58;98185.84;;;10.60;86.66
26083;BME280;13848;49.018;12.078;2022-10-31T08:45:26;98180.28;;;10.62;86.86
26083;BME280;13848;49.018;12.078;2022-10-31T08:47:56;98175.50;;;10.51;86.88
26083;BME280;13848;49.018;12.078;2022-10-31T08:50:22;98177.16;;;10.52;87.66
26083;BME280;13848;49.018;12.078;2022-10-31T08:52:48;98171.34;;;10.68;87.32
26083;BME280;13848;49.018;12.078;2022-10-31T08:55:15;98169.44;;;10.82;87.44
26083;BME280;13848;49.018;12.078;2022-10-31T08:57:42;98168.81;;;10.80;87.42
26083;BME280;13848;49.018;12.078;2022-10-31T09:00:09;98172.13;;;10.82;87.15
26083;BME280;13848;49.018;12.078;2022-10-31T09:02:35;98172.38;;;10.67;87.87
26083;BME280;13848;49.018;12.078;2022-10-31T09:05:01;98168.41;;;10.76;88.84
26083;BME280;13848;49.018;12.078;2022-10-31T09:07:27;98170.84;;;10.98;87.92
26083;BME280;13848;49.018;12.078;2022-10-31T09:09:53;98169.78;;;11.05;87.64
26083;BME280;13848;49.018;12.078;2022-10-31T09:12:19;98175.59;;;11.09;86.87
26083;BME280;13848;49.018;12.078;2022-10-31T09:14:47;98170.81;;;11.11;87.29
26083;BME280;13848;49.018;12.078;2022-10-31T09:17:13;98173.44;;;11.24;86.63
26083;BME280;13848;49.018;12.078;2022-10-31T09:19:38;98164.47;;;11.30;86.55
26083;BME280;13848;49.018;12.078;2022-10-31T09:22:04;98164.28;;;11.32;86.04
26083;BME280;13848;49.018;12.078;2022-10-31T09:24:30;98174.66;;;11.35;87.20
26083;BME280;13848;49.018;12.078;2022-10-31T09:26:58;98170.75;;;11.24;86.28
26083;BME280;13848;49.018;12.078;2022-10-31T09:29:24;98162.38;;;11.39;86.81
26083;BME280;13848;49.018;12.078;2022-10-31T09:31:51;98166.19;;;11.63;86.45
26083;BME280;13848;49.018;12.078;2022-10-31T09:34:17;98172.66;;;11.62;85.66
26083;BME280;13848;49.018;12.078;2022-10-31T09:36:43;98163.13;;;11.53;85.78
26083;BME280;13848;49.018;12.078;2022-10-31T09:39:09;98158.78;;;11.52;85.78
26083;BME280;13848;49.018;12.078;2022-10-31T09:41:55;98163.09;;;11.59;85.77
26083;BME280;13848;49.018;12.078;2022-10-31T09:44:28;98157.03;;;11.64;86.02
26083;BME280;13848;49.018;12.078;2022-10-31T09:47:02;98165.84;;;11.53;85.83
26083;BME280;13848;49.018;12.078;2022-10-31T09:49:39;98162.75;;;11.49;86.13
26083;BME280;13848;49.018;12.078;2022-10-31T09:52:12;98152.59;;;11.44;86.36
26083;BME280;13848;49.018;12.078;2022-10-31T09:54:45;98158.97;;;11.57;86.20
26083;BME280;13848;49.018;12.078;2022-10-31T09:57:14;98155.69;;;11.48;86.46
26083;BME280;13848;49.018;12.078;2022-10-31T09:59:43;98149.03;;;11.51;86.76
26083;BME280;13848;49.018;12.078;2022-10-31T10:02:18;98156.44;;;11.62;86.11
26083;BME280;13848;49.018;12.078;2022-10-31T10:04:49;98159.06;;;11.75;85.88
26083;BME280;13848;49.018;12.078;2022-10-31T10:07:24;98151.34;;;11.85;85.56
26083;BME280;13848;49.018;12.078;2022-10-31T10:09:51;98144.19;;;11.97;85.32
26083;BME280;13848;49.018;12.078;2022-10-31T10:12:40;98148.81;;;11.90;85.41
26083;BME280;13848;49.018;12.078;2022-10-31T10:15:31;98131.13;;;11.94;85.32
26083;BME280;13848;49.018;12.078;2022-10-31T10:18:10;98142.47;;;12.03;85.20
26083;BME280;13848;49.018;12.078;2022-10-31T10:20:48;98135.03;;;11.98;85.53
26083;BME280;13848;49.018;12.078;2022-10-31T10:23:43;98137.94;;;11.97;85.39
26083;BME280;13848;49.018;12.078;2022-10-31T10:26:17;98137.56;;;11.93;85.73
26083;BME280;13848;49.018;12.078;2022-10-31T10:28:45;98138.25;;;11.82;85.92
26083;BME280;13848;49.018;12.078;2022-10-31T10:31:14;98133.84;;;11.94;86.65
26083;BME280;13848;49.018;12.078;2022-10-31T10:33:44;98133.97;;;11.99;86.48
26083;BME280;13848;49.018;12.078;2022-10-31T10:36:14;98134.78;;;12.07;86.28
26083;BME280;13848;49.018;12.078;2022-10-31T10:38:48;98133.47;;;11.84;87.20
26083;BME280;13848;49.018;12.078;2022-10-31T10:41:17;98126.31;;;11.96;86.74
26083;BME280;13848;49.018;12.078;2022-10-31T10:43:44;98123.03;;;11.94;86.58
26083;BME280;13848;49.018;12.078;2022-10-31T10:46:18;98121.41;;;11.80;86.65
26083;BME280;13848;49.018;12.078;2022-10-31T10:48:51;98119.00;;;11.72;88.08
26083;BME280;13848;49.018;12.078;2022-10-31T10:51:23;98114.00;;;11.69;87.92
26083;BME280;13848;49.018;12.078;2022-10-31T10:54:02;98110.53;;;11.93;87.53
26083;BME280;13848;49.018;12.078;2022-10-31T10:56:41;98110.06;;;12.03;86.94
26083;BME280;13848;49.018;12.078;2022-10-31T10:59:13;98102.38;;;12.25;86.73
26083;BME280;13848;49.018;12.078;2022-10-31T11:01:41;98098.28;;;12.16;86.95
26083;BME280;13848;49.018;12.078;2022-10-31T11:04:24;98103.75;;;12.09;86.76
26083;BME280;13848;49.018;12.078;2022-10-31T11:07:03;98099.56;;;12.13;87.20
26083;BME280;13848;49.018;12.078;2022-10-31T11:09:29;98102.53;;;12.30;86.35
26083;BME280;13848;49.018;12.078;2022-10-31T11:11:56;98087.59;;;12.46;86.00
26083;BME280;13848;49.018;12.078;2022-10-31T11:14:22;98091.91;;;12.54;85.77
26083;BME280;13848;49.018;12.078;2022-10-31T11:16:51;98087.09;;;12.56;85.73
26083;BME280;13848;49.018;12.078;2022-10-31T11:19:23;98077.16;;;12.68;85.31
26083;BME280;13848;49.018;12.078;2022-10-31T11:21:49;98077.78;;;12.70;85.24
26083;BME280;13848;49.018;12.078;2022-10-31T11:24:17;98078.75;;;12.75;84.97
26083;BME280;13848;49.018;12.078;2022-10-31T11:26:45;98073.44;;;12.87;84.54
26083;BME280;13848;49.018;12.078;2022-10-31T11:29:14;98066.63;;;12.96;84.36
26083;BME280;13848;49.018;12.078;2022-10-31T11:31:42;98062.44;;;13.00;84.39
26083;BME280;13848;49.018;12.078;2022-10-31T11:34:16;98059.38;;;13.09;84.05
26083;BME280;13848;49.018;12.078;2022-10-31T11:36:47;98063.75;;;13.28;84.38
26083;BME280;13848;49.018;12.078;2022-10-31T11:39:17;98051.59;;;13.61;83.73
26083;BME280;13848;49.018;12.078;2022-10-31T11:41:44;98049.88;;;13.90;83.05
26083;BME280;13848;49.018;12.078;2022-10-31T11:44:13;98047.19;;;14.01;81.39
26083;BME280;13848;49.018;12.078;2022-10-31T11:46:42;98050.03;;;14.06;81.79
26083;BME280;13848;49.018;12.078;2022-10-31T11:49:16;98041.78;;;14.48;80.86
26083;BME280;13848;49.018;12.078;2022-10-31T11:51:49;98043.53;;;15.06;80.24
26083;BME280;13848;49.018;12.078;2022-10-31T11:54:22;98039.91;;;15.91;77.79
26083;BME280;13848;49.018;12.078;2022-10-31T11:56:49;98033.13;;;16.28;75.41
26083;BME280;13848;49.018;12.078;2022-10-31T11:59:21;98024.53;;;16.53;75.50
26083;BME280;13848;49.018;12.078;2022-10-31T12:01:49;98028.16;;;17.02;72.76
26083;BME280;13848;49.018;12.078;2022-10-31T12:04:16;98027.16;;;17.35;72.13
26083;BME280;13848;49.018;12.078;2022-10-31T12:06:43;98023.13;;;17.43;70.23
26083;BME280;13848;49.018;12.078;2022-10-31T12:09:19;98021.19;;;17.11;70.68
26083;BME280;13848;49.018;12.078;2022-10-31T12:11:56;98015.72;;;17.11;69.89
26083;BME280;13848;49.018;12.078;2022-10-31T12:14:33;98008.53;;;17.00;69.78
26083;BME280;13848;49.018;12.078;2022-10-31T12:17:05;97998.66;;;16.94;70.42
26083;BME280;13848;49.018;12.078;2022-10-31T12:19:42;98005.69;;;16.90;70.26
26083;BME280;13848;49.018;12.078;2022-10-31T12:22:15;97999.59;;;16.83;70.40
26083;BME280;13848;49.018;12.078;2022-10-31T12:24:54;97998.72;;;16.77;70.00
26083;BME280;13848;49.018;12.078;2022-10-31T12:27:31;98003.22;;;16.49;70.41
26083;BME280;13848;49.018;12.078;2022-10-31T12:30:14;97994.19;;;16.66;69.93
26083;BME280;13848;49.018;12.078;2022-10-31T12:32:54;97991.44;;;16.44;71.47
26083;BME280;13848;49.018;12.078;2022-10-31T12:35:33;97979.81;;;16.48;71.03
26083;BME280;13848;49.018;12.078;2022-10-31T12:38:15;97984.56;;;16.36;70.34
26083;BME280;13848;49.018;12.078;2022-10-31T12:40:59;97982.91;;;16.35;71.36
26083;BME280;13848;49.018;12.078;2022-10-31T12:43:36;97969.88;;;16.37;71.12
26083;BME280;13848;49.018;12.078;2022-10-31T12:46:07;97961.50;;;16.44;71.38
26083;BME280;13848;49.018;12.078;2022-10-31T12:49:04;97967.03;;;16.49;71.04
26083;BME280;13848;49.018;12.078;2022-10-31T12:51:41;97962.03;;;16.41;70.57
26083;BME280;13848;49.018;12.078;2022-10-31T12:54:24;97961.50;;;16.44;71.27
26083;BME280;13848;49.018;12.078;2022-10-31T12:57:03;97955.94;;;16.34;70.77
26083;BME280;13848;49.018;12.078;2022-10-31T12:59:36;97949.19;;;16.36;70.97
26083;BME280;13848;49.018;12.078;2022-10-31T13:02:10;97950.56;;;16.39;71.67